Guthrie Center, Iowa
Current Conditions -  °F | °C
As of 8:55 AM on Wednesday 26 Nov 2014 (Local Time) from KPRO Reporting Station
Light Snow Light Snow  
Wind Chill: 21°   Ceiling: 500
Heat Index: 29°   Visibility: 3mi
Dew Point: 28°   Wind: 8mph
Humidity: 96%   Direction: 70°ENE
Pressure: 29.91"   Gusts: NA
Location:  41.68°N, 94.5°W
Report Text: KPRO 261455Z AUTO 07007KT 3SM -SN OVC005 M02/M02 A2991 RMK AO2 T10191024
Loading
Personal Weather Stations






























Interactive Weather Map New forecast layout! Learn more

10-Day Weather Forecast

Advertisements
Track Severe Weather on mobile